sensor_id;sensor_type;location;lat;lon;timestamp;pressure;altitude;pressure_sealevel;temperature;humidity
6144;BME280;3103;49.492;8.474;2023-05-27T00:00:13;101374.09;;;17.73;46.82
6144;BME280;3103;49.492;8.474;2023-05-27T00:02:41;101378.47;;;17.74;46.27
6144;BME280;3103;49.492;8.474;2023-05-27T00:05:09;101375.84;;;18.00;46.19
6144;BME280;3103;49.492;8.474;2023-05-27T00:07:35;101377.19;;;17.97;46.67
6144;BME280;3103;49.492;8.474;2023-05-27T00:10:02;101378.66;;;17.68;46.63
6144;BME280;3103;49.492;8.474;2023-05-27T00:12:29;101376.59;;;17.80;46.14
6144;BME280;3103;49.492;8.474;2023-05-27T00:14:56;101376.91;;;17.89;45.91
6144;BME280;3103;49.492;8.474;2023-05-27T00:17:23;101378.25;;;17.91;45.83
6144;BME280;3103;49.492;8.474;2023-05-27T00:19:51;101376.31;;;17.82;46.04
6144;BME280;3103;49.492;8.474;2023-05-27T00:22:18;101370.88;;;17.82;46.67
6144;BME280;3103;49.492;8.474;2023-05-27T00:24:45;101374.13;;;17.78;46.44
6144;BME280;3103;49.492;8.474;2023-05-27T00:27:12;101372.22;;;17.74;46.55
6144;BME280;3103;49.492;8.474;2023-05-27T00:29:38;101373.41;;;17.51;46.89
6144;BME280;3103;49.492;8.474;2023-05-27T00:32:05;101374.75;;;17.48;46.79
6144;BME280;3103;49.492;8.474;2023-05-27T00:34:32;101368.25;;;17.55;46.67
6144;BME280;3103;49.492;8.474;2023-05-27T00:37:01;101363.00;;;17.38;46.83
6144;BME280;3103;49.492;8.474;2023-05-27T00:39:28;101368.44;;;17.43;47.26
6144;BME280;3103;49.492;8.474;2023-05-27T00:41:55;101370.91;;;17.44;47.15
6144;BME280;3103;49.492;8.474;2023-05-27T00:44:24;101370.50;;;17.20;47.65
6144;BME280;3103;49.492;8.474;2023-05-27T00:46:50;101370.53;;;17.26;47.38
6144;BME280;3103;49.492;8.474;2023-05-27T00:49:17;101375.13;;;17.25;47.78
6144;BME280;3103;49.492;8.474;2023-05-27T00:51:45;101372.69;;;17.24;47.68
6144;BME280;3103;49.492;8.474;2023-05-27T00:54:12;101370.22;;;17.22;47.49
6144;BME280;3103;49.492;8.474;2023-05-27T00:56:39;101375.13;;;17.25;47.09
6144;BME280;3103;49.492;8.474;2023-05-27T00:59:06;101371.50;;;17.09;47.42
6144;BME280;3103;49.492;8.474;2023-05-27T01:01:34;101376.94;;;17.09;47.74
6144;BME280;3103;49.492;8.474;2023-05-27T01:04:04;101374.09;;;16.94;47.89
6144;BME280;3103;49.492;8.474;2023-05-27T01:09:39;101369.28;;;16.47;49.67
6144;BME280;3103;49.492;8.474;2023-05-27T01:12:31;101369.69;;;16.88;48.75
6144;BME280;3103;49.492;8.474;2023-05-27T01:15:02;101380.03;;;16.91;48.74
6144;BME280;3103;49.492;8.474;2023-05-27T01:17:32;101372.66;;;16.86;48.49
6144;BME280;3103;49.492;8.474;2023-05-27T01:20:01;101367.88;;;16.99;48.49
6144;BME280;3103;49.492;8.474;2023-05-27T01:22:32;101360.25;;;16.96;48.63
6144;BME280;3103;49.492;8.474;2023-05-27T01:24:58;101349.66;;;16.94;48.70
6144;BME280;3103;49.492;8.474;2023-05-27T01:27:25;101356.19;;;16.98;48.70
6144;BME280;3103;49.492;8.474;2023-05-27T01:29:53;101358.53;;;16.84;49.10
6144;BME280;3103;49.492;8.474;2023-05-27T01:32:25;101359.78;;;16.72;49.40
6144;BME280;3103;49.492;8.474;2023-05-27T01:35:07;101364.13;;;16.73;48.91
6144;BME280;3103;49.492;8.474;2023-05-27T01:37:41;101348.84;;;16.67;49.21
6144;BME280;3103;49.492;8.474;2023-05-27T01:40:11;101344.31;;;16.72;49.16
6144;BME280;3103;49.492;8.474;2023-05-27T01:42:40;101342.06;;;16.64;49.23
6144;BME280;3103;49.492;8.474;2023-05-27T01:45:09;101346.59;;;16.58;49.45
6144;BME280;3103;49.492;8.474;2023-05-27T01:47:36;101348.22;;;16.59;49.61
6144;BME280;3103;49.492;8.474;2023-05-27T01:50:03;101350.66;;;16.56;49.96
6144;BME280;3103;49.492;8.474;2023-05-27T01:52:31;101350.19;;;16.37;50.00
6144;BME280;3103;49.492;8.474;2023-05-27T01:54:58;101347.00;;;16.45;50.43
6144;BME280;3103;49.492;8.474;2023-05-27T01:57:25;101347.13;;;16.55;49.85
6144;BME280;3103;49.492;8.474;2023-05-27T01:59:52;101334.34;;;16.51;50.06
6144;BME280;3103;49.492;8.474;2023-05-27T02:02:19;101333.00;;;16.53;50.31
6144;BME280;3103;49.492;8.474;2023-05-27T02:04:49;101342.75;;;16.54;50.28
6144;BME280;3103;49.492;8.474;2023-05-27T02:07:16;101340.69;;;16.61;49.87
6144;BME280;3103;49.492;8.474;2023-05-27T02:09:43;101342.56;;;16.61;49.70
6144;BME280;3103;49.492;8.474;2023-05-27T02:12:11;101350.09;;;16.54;49.35
6144;BME280;3103;49.492;8.474;2023-05-27T02:14:38;101339.25;;;16.54;49.19
6144;BME280;3103;49.492;8.474;2023-05-27T02:17:05;101336.41;;;16.44;49.77
6144;BME280;3103;49.492;8.474;2023-05-27T02:19:53;101337.31;;;16.49;50.49
6144;BME280;3103;49.492;8.474;2023-05-27T02:22:22;101335.66;;;16.48;49.56
6144;BME280;3103;49.492;8.474;2023-05-27T02:24:49;101329.63;;;16.41;50.10
6144;BME280;3103;49.492;8.474;2023-05-27T02:27:15;101332.44;;;16.24;50.60
6144;BME280;3103;49.492;8.474;2023-05-27T02:29:42;101330.97;;;16.17;50.63
6144;BME280;3103;49.492;8.474;2023-05-27T02:32:09;101332.56;;;16.35;49.84
6144;BME280;3103;49.492;8.474;2023-05-27T02:34:36;101332.53;;;16.08;50.80
6144;BME280;3103;49.492;8.474;2023-05-27T02:37:05;101331.56;;;16.19;50.79
6144;BME280;3103;49.492;8.474;2023-05-27T02:39:32;101318.59;;;16.21;50.31
6144;BME280;3103;49.492;8.474;2023-05-27T02:41:59;101323.66;;;16.17;50.45
6144;BME280;3103;49.492;8.474;2023-05-27T02:44:26;101322.69;;;16.01;50.46
6144;BME280;3103;49.492;8.474;2023-05-27T02:46:53;101316.44;;;16.01;50.32
6144;BME280;3103;49.492;8.474;2023-05-27T02:49:20;101317.00;;;16.03;50.10
6144;BME280;3103;49.492;8.474;2023-05-27T02:51:48;101319.41;;;15.99;50.49
6144;BME280;3103;49.492;8.474;2023-05-27T02:54:15;101324.28;;;15.97;50.31
6144;BME280;3103;49.492;8.474;2023-05-27T02:56:42;101319.63;;;15.93;50.72
6144;BME280;3103;49.492;8.474;2023-05-27T02:59:09;101325.78;;;15.88;50.48
6144;BME280;3103;49.492;8.474;2023-05-27T03:01:36;101322.72;;;15.80;51.10
6144;BME280;3103;49.492;8.474;2023-05-27T03:04:03;101317.59;;;15.83;50.96
6144;BME280;3103;49.492;8.474;2023-05-27T03:06:31;101313.38;;;15.92;50.42
6144;BME280;3103;49.492;8.474;2023-05-27T03:08:58;101314.75;;;15.73;50.61
6144;BME280;3103;49.492;8.474;2023-05-27T03:11:26;101319.38;;;15.72;50.94
6144;BME280;3103;49.492;8.474;2023-05-27T03:13:53;101317.41;;;15.68;51.11
6144;BME280;3103;49.492;8.474;2023-05-27T03:16:20;101329.63;;;15.70;51.21
6144;BME280;3103;49.492;8.474;2023-05-27T03:18:47;101326.13;;;15.70;51.65
6144;BME280;3103;49.492;8.474;2023-05-27T03:21:14;101325.16;;;15.81;51.44
6144;BME280;3103;49.492;8.474;2023-05-27T03:23:42;101323.28;;;15.82;51.55
6144;BME280;3103;49.492;8.474;2023-05-27T03:26:09;101328.00;;;15.69;52.08
6144;BME280;3103;49.492;8.474;2023-05-27T03:28:36;101317.94;;;15.65;52.06
6144;BME280;3103;49.492;8.474;2023-05-27T03:31:03;101328.31;;;15.73;52.28
6144;BME280;3103;49.492;8.474;2023-05-27T03:33:42;101322.16;;;15.78;52.01
6144;BME280;3103;49.492;8.474;2023-05-27T03:36:09;101326.69;;;15.72;52.24
6144;BME280;3103;49.492;8.474;2023-05-27T03:38:36;101320.38;;;15.66;51.98
6144;BME280;3103;49.492;8.474;2023-05-27T03:41:03;101321.59;;;15.59;52.47
6144;BME280;3103;49.492;8.474;2023-05-27T03:43:33;101318.53;;;15.72;51.84
6144;BME280;3103;49.492;8.474;2023-05-27T03:46:00;101309.72;;;15.60;52.41
6144;BME280;3103;49.492;8.474;2023-05-27T03:48:28;101315.13;;;15.60;52.80
6144;BME280;3103;49.492;8.474;2023-05-27T03:50:54;101310.19;;;15.57;52.92
6144;BME280;3103;49.492;8.474;2023-05-27T03:53:22;101319.59;;;15.49;52.81
6144;BME280;3103;49.492;8.474;2023-05-27T03:55:49;101322.97;;;15.39;53.40
6144;BME280;3103;49.492;8.474;2023-05-27T03:58:16;101325.44;;;15.41;53.45
6144;BME280;3103;49.492;8.474;2023-05-27T04:00:43;101332.72;;;15.40;53.64
6144;BME280;3103;49.492;8.474;2023-05-27T04:03:09;101328.81;;;15.31;54.03
6144;BME280;3103;49.492;8.474;2023-05-27T04:05:37;101328.50;;;15.28;53.93
6144;BME280;3103;49.492;8.474;2023-05-27T04:08:04;101326.59;;;15.28;53.69
6144;BME280;3103;49.492;8.474;2023-05-27T04:10:31;101325.38;;;15.58;53.49
6144;BME280;3103;49.492;8.474;2023-05-27T04:12:58;101326.56;;;15.45;53.02
6144;BME280;3103;49.492;8.474;2023-05-27T04:15:24;101327.28;;;15.57;52.34
6144;BME280;3103;49.492;8.474;2023-05-27T04:17:52;101328.94;;;15.41;53.01
6144;BME280;3103;49.492;8.474;2023-05-27T04:20:19;101326.31;;;15.47;53.77
6144;BME280;3103;49.492;8.474;2023-05-27T04:22:51;101324.66;;;15.45;53.62
6144;BME280;3103;49.492;8.474;2023-05-27T04:25:19;101325.06;;;15.54;52.72
6144;BME280;3103;49.492;8.474;2023-05-27T04:28:01;101318.78;;;15.49;53.16
6144;BME280;3103;49.492;8.474;2023-05-27T04:30:33;101322.88;;;15.51;53.24
6144;BME280;3103;49.492;8.474;2023-05-27T04:33:02;101324.66;;;15.45;53.42
6144;BME280;3103;49.492;8.474;2023-05-27T04:35:29;101316.16;;;15.37;53.88
6144;BME280;3103;49.492;8.474;2023-05-27T04:37:59;101318.94;;;15.42;53.75
6144;BME280;3103;49.492;8.474;2023-05-27T04:40:33;101321.78;;;15.52;53.45
6144;BME280;3103;49.492;8.474;2023-05-27T04:43:25;101326.13;;;15.53;53.61
6144;BME280;3103;49.492;8.474;2023-05-27T04:45:54;101319.81;;;15.48;53.86
6144;BME280;3103;49.492;8.474;2023-05-27T04:48:22;101327.59;;;15.61;53.11
6144;BME280;3103;49.492;8.474;2023-05-27T04:50:50;101325.59;;;15.73;52.53
6144;BME280;3103;49.492;8.474;2023-05-27T04:53:20;101319.66;;;15.54;53.50
6144;BME280;3103;49.492;8.474;2023-05-27T04:55:47;101325.00;;;15.66;53.45
6144;BME280;3103;49.492;8.474;2023-05-27T04:58:15;101325.34;;;15.74;52.89
6144;BME280;3103;49.492;8.474;2023-05-27T05:00:42;101323.16;;;15.71;52.81
6144;BME280;3103;49.492;8.474;2023-05-27T05:03:20;101317.09;;;15.86;52.51
6144;BME280;3103;49.492;8.474;2023-05-27T05:05:49;101319.38;;;15.72;52.75
6144;BME280;3103;49.492;8.474;2023-05-27T05:08:21;101329.81;;;15.86;53.13
6144;BME280;3103;49.492;8.474;2023-05-27T05:10:51;101321.00;;;15.95;52.48
6144;BME280;3103;49.492;8.474;2023-05-27T05:13:19;101324.16;;;16.09;52.21
6144;BME280;3103;49.492;8.474;2023-05-27T05:15:46;101329.06;;;16.12;51.91
6144;BME280;3103;49.492;8.474;2023-05-27T05:18:13;101329.44;;;16.21;51.84
6144;BME280;3103;49.492;8.474;2023-05-27T05:20:42;101330.16;;;16.16;51.92
6144;BME280;3103;49.492;8.474;2023-05-27T05:23:12;101332.41;;;16.19;51.45
6144;BME280;3103;49.492;8.474;2023-05-27T05:25:38;101328.59;;;16.20;51.50
6144;BME280;3103;49.492;8.474;2023-05-27T05:28:07;101330.13;;;16.38;51.38
6144;BME280;3103;49.492;8.474;2023-05-27T05:30:35;101328.09;;;16.50;50.91
6144;BME280;3103;49.492;8.474;2023-05-27T05:33:02;101325.16;;;16.57;50.86
6144;BME280;3103;49.492;8.474;2023-05-27T05:35:31;101327.59;;;16.58;50.95
6144;BME280;3103;49.492;8.474;2023-05-27T05:38:13;101335.81;;;16.63;51.01
6144;BME280;3103;49.492;8.474;2023-05-27T05:40:39;101326.50;;;16.54;50.73
6144;BME280;3103;49.492;8.474;2023-05-27T05:43:16;101330.81;;;16.77;50.60
6144;BME280;3103;49.492;8.474;2023-05-27T05:45:43;101338.06;;;16.72;50.89
6144;BME280;3103;49.492;8.474;2023-05-27T05:48:11;101343.56;;;16.77;50.82
6144;BME280;3103;49.492;8.474;2023-05-27T05:50:40;101338.44;;;16.85;50.36
6144;BME280;3103;49.492;8.474;2023-05-27T05:53:09;101335.59;;;17.02;50.37
6144;BME280;3103;49.492;8.474;2023-05-27T05:55:36;101338.38;;;17.12;49.54
6144;BME280;3103;49.492;8.474;2023-05-27T05:58:03;101335.72;;;17.17;49.37
6144;BME280;3103;49.492;8.474;2023-05-27T06:00:30;101340.13;;;17.29;49.34
6144;BME280;3103;49.492;8.474;2023-05-27T06:03:17;101344.19;;;17.26;48.38
6144;BME280;3103;49.492;8.474;2023-05-27T06:05:54;101348.16;;;17.13;48.61
6144;BME280;3103;49.492;8.474;2023-05-27T06:08:21;101339.91;;;17.40;47.43
6144;BME280;3103;49.492;8.474;2023-05-27T06:10:58;101335.34;;;17.46;47.01
6144;BME280;3103;49.492;8.474;2023-05-27T06:13:26;101344.59;;;17.50;47.14
6144;BME280;3103;49.492;8.474;2023-05-27T06:15:55;101340.75;;;17.41;47.83
6144;BME280;3103;49.492;8.474;2023-05-27T06:18:22;101345.16;;;17.52;47.00
6144;BME280;3103;49.492;8.474;2023-05-27T06:20:49;101341.88;;;17.50;47.03
6144;BME280;3103;49.492;8.474;2023-05-27T06:23:18;101342.56;;;17.72;46.63
6144;BME280;3103;49.492;8.474;2023-05-27T06:26:04;101345.22;;;17.62;45.92
6144;BME280;3103;49.492;8.474;2023-05-27T06:28:39;101338.00;;;17.83;45.60
6144;BME280;3103;49.492;8.474;2023-05-27T06:31:07;101342.38;;;17.89;45.94
6144;BME280;3103;49.492;8.474;2023-05-27T06:33:35;101347.00;;;17.94;45.53
6144;BME280;3103;49.492;8.474;2023-05-27T06:36:02;101340.81;;;18.08;45.13
6144;BME280;3103;49.492;8.474;2023-05-27T06:38:29;101341.94;;;18.23;44.64
6144;BME280;3103;49.492;8.474;2023-05-27T06:40:57;101341.41;;;18.36;44.34
6144;BME280;3103;49.492;8.474;2023-05-27T06:43:24;101330.25;;;18.37;44.08
6144;BME280;3103;49.492;8.474;2023-05-27T06:45:51;101331.66;;;18.60;43.19
6144;BME280;3103;49.492;8.474;2023-05-27T06:48:46;101337.91;;;18.61;42.63
6144;BME280;3103;49.492;8.474;2023-05-27T06:51:14;101330.00;;;18.39;42.54
6144;BME280;3103;49.492;8.474;2023-05-27T06:53:41;101332.47;;;18.46;42.82
6144;BME280;3103;49.492;8.474;2023-05-27T06:56:11;101329.72;;;18.56;42.21
6144;BME280;3103;49.492;8.474;2023-05-27T06:58:57;101323.53;;;18.81;42.00
6144;BME280;3103;49.492;8.474;2023-05-27T07:01:24;101328.97;;;18.81;41.72
6144;BME280;3103;49.492;8.474;2023-05-27T07:03:56;101328.69;;;19.08;41.29
6144;BME280;3103;49.492;8.474;2023-05-27T07:06:36;101315.84;;;19.13;41.61
6144;BME280;3103;49.492;8.474;2023-05-27T07:09:04;101327.28;;;19.20;40.30
6144;BME280;3103;49.492;8.474;2023-05-27T07:11:33;101327.00;;;19.22;41.04
6144;BME280;3103;49.492;8.474;2023-05-27T07:14:04;101324.56;;;19.31;40.76
6144;BME280;3103;49.492;8.474;2023-05-27T07:16:32;101334.63;;;19.35;40.18
6144;BME280;3103;49.492;8.474;2023-05-27T07:19:00;101323.19;;;19.33;40.49
6144;BME280;3103;49.492;8.474;2023-05-27T07:21:31;101322.88;;;19.55;40.07
6144;BME280;3103;49.492;8.474;2023-05-27T07:24:00;101314.97;;;19.59;39.45
6144;BME280;3103;49.492;8.474;2023-05-27T07:26:34;101317.09;;;19.67;39.62
6144;BME280;3103;49.492;8.474;2023-05-27T07:29:01;101309.41;;;19.79;39.50
6144;BME280;3103;49.492;8.474;2023-05-27T07:31:54;101313.56;;;19.71;39.35
6144;BME280;3103;49.492;8.474;2023-05-27T07:34:33;101309.97;;;19.76;39.38
6144;BME280;3103;49.492;8.474;2023-05-27T07:37:00;101311.06;;;19.80;39.86
6144;BME280;3103;49.492;8.474;2023-05-27T07:39:27;101309.38;;;19.89;39.03
6144;BME280;3103;49.492;8.474;2023-05-27T07:41:54;101307.19;;;19.91;39.69
6144;BME280;3103;49.492;8.474;2023-05-27T07:44:23;101303.50;;;20.16;38.68
6144;BME280;3103;49.492;8.474;2023-05-27T07:46:50;101303.66;;;20.35;39.53
6144;BME280;3103;49.492;8.474;2023-05-27T07:49:17;101293.94;;;20.19;38.85
6144;BME280;3103;49.492;8.474;2023-05-27T07:52:05;101303.66;;;20.35;38.65
6144;BME280;3103;49.492;8.474;2023-05-27T07:54:32;101302.44;;;20.56;38.55
6144;BME280;3103;49.492;8.474;2023-05-27T07:57:03;101303.00;;;20.53;37.75
6144;BME280;3103;49.492;8.474;2023-05-27T07:59:32;101294.34;;;20.41;36.39
6144;BME280;3103;49.492;8.474;2023-05-27T08:01:59;101294.31;;;20.46;36.27
6144;BME280;3103;49.492;8.474;2023-05-27T08:04:26;101296.41;;;20.54;36.12
6144;BME280;3103;49.492;8.474;2023-05-27T08:07:17;101284.16;;;20.52;36.33
6144;BME280;3103;49.492;8.474;2023-05-27T08:10:05;101286.06;;;20.56;35.63
6144;BME280;3103;49.492;8.474;2023-05-27T08:12:55;101289.22;;;20.68;35.53
6144;BME280;3103;49.492;8.474;2023-05-27T08:15:31;101284.66;;;20.59;35.88
6144;BME280;3103;49.492;8.474;2023-05-27T08:18:10;101278.28;;;20.68;35.34
6144;BME280;3103;49.492;8.474;2023-05-27T08:21:04;101286.97;;;20.75;36.28
6144;BME280;3103;49.492;8.474;2023-05-27T08:24:00;101278.94;;;20.89;36.09
6144;BME280;3103;49.492;8.474;2023-05-27T08:26:29;101276.44;;;20.93;35.48
6144;BME280;3103;49.492;8.474;2023-05-27T08:29:08;101279.66;;;21.00;35.49
6144;BME280;3103;49.492;8.474;2023-05-27T08:31:49;101269.75;;;21.04;35.45
6144;BME280;3103;49.492;8.474;2023-05-27T08:34:19;101264.50;;;21.13;35.19
6144;BME280;3103;49.492;8.474;2023-05-27T08:36:46;101251.97;;;21.07;35.25
6144;BME280;3103;49.492;8.474;2023-05-27T08:39:13;101255.22;;;21.09;35.01
6144;BME280;3103;49.492;8.474;2023-05-27T08:41:48;101258.59;;;21.29;35.46
6144;BME280;3103;49.492;8.474;2023-05-27T08:44:15;101259.41;;;21.30;35.52
6144;BME280;3103;49.492;8.474;2023-05-27T08:46:56;101260.56;;;21.48;35.18
6144;BME280;3103;49.492;8.474;2023-05-27T08:49:23;101256.50;;;21.45;34.33
6144;BME280;3103;49.492;8.474;2023-05-27T08:51:50;101257.75;;;21.53;35.34
6144;BME280;3103;49.492;8.474;2023-05-27T08:54:21;101253.25;;;21.43;35.18
6144;BME280;3103;49.492;8.474;2023-05-27T08:56:49;101250.09;;;21.55;35.02
6144;BME280;3103;49.492;8.474;2023-05-27T08:59:19;101245.38;;;21.37;34.33
6144;BME280;3103;49.492;8.474;2023-05-27T09:01:46;101237.44;;;21.40;35.26
6144;BME280;3103;49.492;8.474;2023-05-27T09:04:14;101231.38;;;21.62;36.49
6144;BME280;3103;49.492;8.474;2023-05-27T09:06:41;101244.13;;;21.72;35.53
6144;BME280;3103;49.492;8.474;2023-05-27T09:09:08;101244.63;;;21.74;35.02
6144;BME280;3103;49.492;8.474;2023-05-27T09:11:39;101242.13;;;21.77;35.63
6144;BME280;3103;49.492;8.474;2023-05-27T09:14:06;101235.41;;;21.88;35.50
6144;BME280;3103;49.492;8.474;2023-05-27T09:16:33;101240.59;;;22.09;35.32
6144;BME280;3103;49.492;8.474;2023-05-27T09:19:00;101233.09;;;21.96;34.54
6144;BME280;3103;49.492;8.474;2023-05-27T09:21:27;101230.00;;;22.02;35.29
6144;BME280;3103;49.492;8.474;2023-05-27T09:23:56;101226.91;;;22.09;35.06
6144;BME280;3103;49.492;8.474;2023-05-27T09:26:24;101221.28;;;22.00;34.91
6144;BME280;3103;49.492;8.474;2023-05-27T09:28:51;101232.69;;;22.07;34.69
6144;BME280;3103;49.492;8.474;2023-05-27T09:31:20;101229.63;;;22.09;33.86
6144;BME280;3103;49.492;8.474;2023-05-27T09:33:48;101227.44;;;22.11;34.75
6144;BME280;3103;49.492;8.474;2023-05-27T09:36:20;101226.25;;;22.17;34.89
6144;BME280;3103;49.492;8.474;2023-05-27T09:38:47;101230.69;;;22.13;34.88
6144;BME280;3103;49.492;8.474;2023-05-27T09:41:14;101224.38;;;21.93;34.31
6144;BME280;3103;49.492;8.474;2023-05-27T09:43:41;101230.19;;;22.11;35.12
6144;BME280;3103;49.492;8.474;2023-05-27T09:46:11;101219.22;;;22.11;35.16
6144;BME280;3103;49.492;8.474;2023-05-27T09:48:40;101210.13;;;22.15;34.41
6144;BME280;3103;49.492;8.474;2023-05-27T09:51:07;101210.03;;;22.20;35.15
6144;BME280;3103;49.492;8.474;2023-05-27T09:53:35;101212.03;;;22.15;35.29
6144;BME280;3103;49.492;8.474;2023-05-27T09:56:03;101203.38;;;22.27;34.65
6144;BME280;3103;49.492;8.474;2023-05-27T09:58:30;101209.66;;;22.27;35.83
6144;BME280;3103;49.492;8.474;2023-05-27T10:00:58;101203.88;;;22.29;35.40
6144;BME280;3103;49.492;8.474;2023-05-27T10:03:26;101202.72;;;22.16;35.36
6144;BME280;3103;49.492;8.474;2023-05-27T10:05:56;101199.78;;;22.45;34.88
6144;BME280;3103;49.492;8.474;2023-05-27T10:08:23;101198.06;;;22.49;35.40
6144;BME280;3103;49.492;8.474;2023-05-27T10:10:53;101187.59;;;22.51;34.38
6144;BME280;3103;49.492;8.474;2023-05-27T10:13:21;101191.25;;;22.46;34.54
6144;BME280;3103;49.492;8.474;2023-05-27T10:15:51;101192.81;;;22.52;35.12
6144;BME280;3103;49.492;8.474;2023-05-27T10:18:26;101191.66;;;22.40;35.59
6144;BME280;3103;49.492;8.474;2023-05-27T10:20:59;101177.22;;;22.34;34.25
6144;BME280;3103;49.492;8.474;2023-05-27T10:23:28;101185.28;;;22.44;34.91
6144;BME280;3103;49.492;8.474;2023-05-27T10:26:00;101180.50;;;22.50;35.80
6144;BME280;3103;49.492;8.474;2023-05-27T10:28:29;101176.34;;;22.39;34.71
6144;BME280;3103;49.492;8.474;2023-05-27T10:31:06;101173.31;;;22.40;35.31
6144;BME280;3103;49.492;8.474;2023-05-27T10:33:36;101176.16;;;22.49;35.38
6144;BME280;3103;49.492;8.474;2023-05-27T10:36:10;101166.75;;;22.55;34.74
6144;BME280;3103;49.492;8.474;2023-05-27T10:38:38;101164.00;;;22.55;34.44
6144;BME280;3103;49.492;8.474;2023-05-27T10:41:06;101165.09;;;22.40;34.50
6144;BME280;3103;49.492;8.474;2023-05-27T10:43:34;101161.44;;;22.45;35.78
6144;BME280;3103;49.492;8.474;2023-05-27T10:46:13;101158.28;;;22.51;35.72
6144;BME280;3103;49.492;8.474;2023-05-27T10:48:40;101153.75;;;22.61;35.21
6144;BME280;3103;49.492;8.474;2023-05-27T10:51:07;101148.78;;;22.63;35.15
6144;BME280;3103;49.492;8.474;2023-05-27T10:53:36;101151.13;;;22.69;35.03
6144;BME280;3103;49.492;8.474;2023-05-27T10:56:03;101147.78;;;22.59;35.06
6144;BME280;3103;49.492;8.474;2023-05-27T10:58:34;101141.59;;;22.67;35.53
6144;BME280;3103;49.492;8.474;2023-05-27T11:01:10;101137.44;;;22.69;35.06
6144;BME280;3103;49.492;8.474;2023-05-27T11:03:44;101127.38;;;22.78;35.07
6144;BME280;3103;49.492;8.474;2023-05-27T11:06:12;101134.22;;;22.81;34.85
6144;BME280;3103;49.492;8.474;2023-05-27T11:08:39;101120.09;;;22.74;35.21
6144;BME280;3103;49.492;8.474;2023-05-27T11:11:08;101118.56;;;22.68;34.35
6144;BME280;3103;49.492;8.474;2023-05-27T11:13:38;101114.59;;;22.60;34.63
6144;BME280;3103;49.492;8.474;2023-05-27T11:16:06;101109.94;;;22.61;35.52
6144;BME280;3103;49.492;8.474;2023-05-27T11:18:41;101104.34;;;22.66;35.23
6144;BME280;3103;49.492;8.474;2023-05-27T11:21:10;101105.38;;;22.70;35.85
6144;BME280;3103;49.492;8.474;2023-05-27T11:23:39;101100.81;;;22.79;34.47
6144;BME280;3103;49.492;8.474;2023-05-27T11:26:18;101105.56;;;22.60;34.58
6144;BME280;3103;49.492;8.474;2023-05-27T11:28:51;101100.00;;;22.78;34.73
6144;BME280;3103;49.492;8.474;2023-05-27T11:31:20;101099.00;;;22.88;34.43
6144;BME280;3103;49.492;8.474;2023-05-27T11:33:51;101106.91;;;22.76;37.05
6144;BME280;3103;49.492;8.474;2023-05-27T11:36:18;101095.94;;;22.76;34.92
6144;BME280;3103;49.492;8.474;2023-05-27T11:38:50;101094.00;;;22.76;35.27
6144;BME280;3103;49.492;8.474;2023-05-27T11:41:19;101097.97;;;22.70;35.08
6144;BME280;3103;49.492;8.474;2023-05-27T11:43:59;101089.97;;;22.74;36.34
6144;BME280;3103;49.492;8.474;2023-05-27T11:46:37;101082.75;;;22.78;35.30
6144;BME280;3103;49.492;8.474;2023-05-27T11:49:05;101071.28;;;22.76;35.20
6144;BME280;3103;49.492;8.474;2023-05-27T11:51:37;101078.06;;;22.78;35.38
6144;BME280;3103;49.492;8.474;2023-05-27T11:54:04;101074.75;;;22.81;35.56
6144;BME280;3103;49.492;8.474;2023-05-27T11:56:31;101081.56;;;22.84;35.29
6144;BME280;3103;49.492;8.474;2023-05-27T11:58:59;101070.16;;;22.77;33.71
6144;BME280;3103;49.492;8.474;2023-05-27T12:01:26;101055.56;;;22.81;32.40
6144;BME280;3103;49.492;8.474;2023-05-27T12:03:53;101060.25;;;22.81;35.16
6144;BME280;3103;49.492;8.474;2023-05-27T12:06:20;101059.53;;;22.75;35.87
6144;BME280;3103;49.492;8.474;2023-05-27T12:08:47;101046.63;;;22.76;33.47
6144;BME280;3103;49.492;8.474;2023-05-27T12:11:14;101048.69;;;22.84;33.23
6144;BME280;3103;49.492;8.474;2023-05-27T12:13:41;101051.00;;;22.77;34.02
6144;BME280;3103;49.492;8.474;2023-05-27T12:16:07;101048.25;;;22.77;34.16
6144;BME280;3103;49.492;8.474;2023-05-27T12:18:34;101046.34;;;22.91;32.33
6144;BME280;3103;49.492;8.474;2023-05-27T12:21:01;101034.06;;;22.89;31.63
6144;BME280;3103;49.492;8.474;2023-05-27T12:23:28;101037.13;;;22.87;31.63
6144;BME280;3103;49.492;8.474;2023-05-27T12:25:55;101028.78;;;22.92;32.55
6144;BME280;3103;49.492;8.474;2023-05-27T12:28:22;101024.03;;;22.84;32.31
6144;BME280;3103;49.492;8.474;2023-05-27T12:30:49;101030.09;;;22.81;33.19
6144;BME280;3103;49.492;8.474;2023-05-27T12:33:15;101034.25;;;22.92;32.98
6144;BME280;3103;49.492;8.474;2023-05-27T12:35:42;101019.25;;;22.76;31.35
6144;BME280;3103;49.492;8.474;2023-05-27T12:38:09;101015.28;;;22.82;30.95
6144;BME280;3103;49.492;8.474;2023-05-27T12:40:37;101017.94;;;22.73;32.39
6144;BME280;3103;49.492;8.474;2023-05-27T12:43:03;101012.03;;;22.80;31.16
6144;BME280;3103;49.492;8.474;2023-05-27T12:45:31;101009.38;;;23.02;31.21
6144;BME280;3103;49.492;8.474;2023-05-27T12:47:58;101015.47;;;22.99;32.42
6144;BME280;3103;49.492;8.474;2023-05-27T12:50:25;101013.25;;;23.01;32.89
6144;BME280;3103;49.492;8.474;2023-05-27T12:52:52;101009.16;;;23.13;32.65
6144;BME280;3103;49.492;8.474;2023-05-27T12:55:21;101010.47;;;23.15;33.01
6144;BME280;3103;49.492;8.474;2023-05-27T12:57:50;100997.44;;;23.21;32.38
6144;BME280;3103;49.492;8.474;2023-05-27T13:00:18;100999.56;;;23.24;33.11
6144;BME280;3103;49.492;8.474;2023-05-27T13:02:46;101001.72;;;23.35;32.75
6144;BME280;3103;49.492;8.474;2023-05-27T13:05:14;100990.47;;;23.37;32.80
6144;BME280;3103;49.492;8.474;2023-05-27T13:07:56;100993.41;;;23.40;32.06
6144;BME280;3103;49.492;8.474;2023-05-27T13:10:24;100996.94;;;23.41;32.69
6144;BME280;3103;49.492;8.474;2023-05-27T13:12:51;100996.00;;;23.46;32.95
6144;BME280;3103;49.492;8.474;2023-05-27T13:15:18;100984.50;;;23.57;31.89
6144;BME280;3103;49.492;8.474;2023-05-27T13:17:46;100983.44;;;23.67;31.32
6144;BME280;3103;49.492;8.474;2023-05-27T13:20:14;100979.13;;;23.75;31.58
6144;BME280;3103;49.492;8.474;2023-05-27T13:22:42;100984.25;;;23.67;31.93
6144;BME280;3103;49.492;8.474;2023-05-27T13:25:10;100974.31;;;23.80;31.86